Time;durP1;ratioP1;P1;durP2;ratioP2;P2;SDS_P1;SDS_P2;PMS_P1;PMS_P2;Temp;Humidity;BMP_temperature;BMP_pressure;BME280_temperature;BME280_humidity;BME280_pressure;Samples;Min_cycle;Max_cycle;Signal;HPM_P1;HPM_P2
2022/06/10 00:00:49;;;;;;;6.75;2.15;;;12.20;99.90;;;;;;4979209;28;20050;-80
2022/06/10 00:03:17;;;;;;;10.23;2.60;;;12.30;99.90;;;;;;4997882;28;20050;-80
2022/06/10 00:05:48;;;;;;;7.28;1.98;;;12.20;99.90;;;;;;4997761;28;20556;-81
2022/06/10 00:08:17;;;;;;;7.53;2.17;;;12.20;99.90;;;;;;4982269;28;20058;-81
2022/06/10 00:10:45;;;;;;;7.10;2.17;;;12.10;99.90;;;;;;4980178;28;20690;-80
2022/06/10 00:13:15;;;;;;;9.18;2.40;;;12.30;99.90;;;;;;4992814;28;20057;-80
2022/06/10 00:15:41;;;;;;;9.35;2.60;;;12.20;99.90;;;;;;4996205;28;20045;-80
2022/06/10 00:18:07;;;;;;;5.95;1.65;;;12.10;99.90;;;;;;5002033;28;20050;-80
2022/06/10 00:20:33;;;;;;;8.57;2.10;;;12.10;99.90;;;;;;5001012;28;20061;-80
2022/06/10 00:22:59;;;;;;;8.00;2.95;;;12.00;99.90;;;;;;4996810;28;20050;-80
2022/06/10 00:25:29;;;;;;;7.35;2.38;;;12.00;99.90;;;;;;4998308;28;20152;-80
2022/06/10 00:27:55;;;;;;;9.35;2.80;;;12.00;99.90;;;;;;4998636;28;20045;-80
2022/06/10 00:30:24;;;;;;;8.70;1.95;;;11.90;99.90;;;;;;5015407;28;20701;-80
2022/06/10 00:32:50;;;;;;;10.27;2.10;;;11.90;99.90;;;;;;4982784;28;20168;-80
2022/06/10 00:35:17;;;;;;;7.75;2.15;;;11.90;99.90;;;;;;4992832;28;20173;-80
2022/06/10 00:37:42;;;;;;;7.18;2.20;;;11.90;99.90;;;;;;5000507;28;20049;-81
2022/06/10 00:40:15;;;;;;;8.50;2.47;;;11.90;99.90;;;;;;4993865;28;20915;-80
2022/06/10 00:42:41;;;;;;;8.13;2.55;;;11.90;99.90;;;;;;4996598;28;20060;-80
2022/06/10 00:45:45;;;;;;;12.02;2.67;;;12.00;99.90;;;;;;4997222;28;20041;-80
2022/06/10 00:48:15;;;;;;;10.10;2.33;;;11.80;99.90;;;;;;4993562;28;20073;-80
2022/06/10 00:50:42;;;;;;;10.90;2.38;;;11.80;99.90;;;;;;4986772;28;20559;-81
2022/06/10 00:53:12;;;;;;;8.93;2.33;;;11.70;99.90;;;;;;4981968;28;20481;-81
2022/06/10 00:55:38;;;;;;;9.10;2.28;;;11.80;99.90;;;;;;4997610;28;20045;-81
2022/06/10 00:58:16;;;;;;;9.05;2.65;;;11.70;99.90;;;;;;4991590;28;20050;-80
2022/06/10 01:00:41;;;;;;;9.13;2.50;;;11.70;99.90;;;;;;4998931;28;20564;-81
2022/06/10 01:03:07;;;;;;;12.00;2.72;;;11.60;99.90;;;;;;4988283;28;20046;-80
2022/06/10 01:05:33;;;;;;;11.15;2.95;;;11.60;99.90;;;;;;5000101;28;20061;-81
2022/06/10 01:08:03;;;;;;;13.98;2.70;;;11.60;99.90;;;;;;4991547;28;20046;-81
2022/06/10 01:10:35;;;;;;;8.05;2.38;;;11.60;99.90;;;;;;4995726;28;20046;-80
2022/06/10 01:13:21;;;;;;;10.10;2.33;;;11.50;99.90;;;;;;5000578;28;20045;-81
2022/06/10 01:15:57;;;;;;;7.32;2.50;;;11.50;99.90;;;;;;4984118;28;20499;-80
2022/06/10 01:18:51;;;;;;;9.32;2.60;;;11.50;99.90;;;;;;4996936;28;20050;-81
2022/06/10 01:21:51;;;;;;;6.95;2.45;;;11.50;99.90;;;;;;4996500;28;20054;-81
2022/06/10 01:24:47;;;;;;;10.75;3.03;;;11.50;99.90;;;;;;4996070;28;20575;-82
2022/06/10 01:27:48;;;;;;;7.40;2.30;;;11.50;99.90;;;;;;4996539;28;20523;-81
2022/06/10 01:30:30;;;;;;;8.20;2.75;;;11.40;99.90;;;;;;4996610;28;20041;-81
2022/06/10 01:33:16;;;;;;;8.90;2.83;;;11.50;99.90;;;;;;4998866;28;20056;-81
2022/06/10 01:35:48;;;;;;;6.95;3.25;;;11.50;99.90;;;;;;5007309;28;20791;-81
2022/06/10 01:38:51;;;;;;;8.00;2.60;;;11.40;99.90;;;;;;5007538;28;20040;-81
2022/06/10 01:41:26;;;;;;;8.35;2.70;;;11.40;99.90;;;;;;4977682;28;20078;-82
2022/06/10 01:44:15;;;;;;;8.02;3.38;;;11.40;99.90;;;;;;4995056;28;20057;-81
2022/06/10 01:46:51;;;;;;;12.65;3.13;;;11.40;99.90;;;;;;4968205;28;20058;-82
2022/06/10 01:49:43;;;;;;;11.02;3.03;;;11.30;99.90;;;;;;5000168;28;20054;-82
2022/06/10 01:52:19;;;;;;;9.75;2.63;;;11.30;99.90;;;;;;4999283;28;20489;-82
2022/06/10 01:55:01;;;;;;;9.82;3.13;;;11.30;99.90;;;;;;4997266;28;20054;-82
2022/06/10 01:57:50;;;;;;;8.65;3.33;;;11.20;99.90;;;;;;4988519;28;20070;-82
2022/06/10 02:00:23;;;;;;;9.63;2.88;;;11.20;99.90;;;;;;4983617;28;20057;-82
2022/06/10 02:03:03;;;;;;;9.52;2.95;;;11.20;99.90;;;;;;4995404;28;20107;-82
2022/06/10 02:05:32;;;;;;;6.22;3.20;;;11.20;99.90;;;;;;4991943;28;20050;-83
2022/06/10 02:08:14;;;;;;;10.05;3.03;;;11.10;99.90;;;;;;4999515;28;20795;-83
2022/06/10 02:11:10;;;;;;;10.02;2.88;;;11.20;99.90;;;;;;4999797;28;20860;-81
2022/06/10 02:13:54;;;;;;;12.60;3.78;;;11.10;99.90;;;;;;5000348;28;20065;-82
2022/06/10 02:16:28;;;;;;;7.65;3.10;;;11.10;99.90;;;;;;4994897;28;20117;-82
2022/06/10 02:18:59;;;;;;;15.40;3.97;;;11.10;99.90;;;;;;4992990;28;20061;-82
2022/06/10 02:21:32;;;;;;;9.57;3.60;;;11.10;99.90;;;;;;4986951;28;20046;-82
2022/06/10 02:24:10;;;;;;;11.27;3.55;;;11.00;99.90;;;;;;4992412;28;20824;-82
2022/06/10 02:26:37;;;;;;;10.20;3.20;;;11.00;99.90;;;;;;4997058;28;20124;-82
2022/06/10 02:29:09;;;;;;;11.85;3.13;;;11.00;99.90;;;;;;4995254;28;20049;-82
2022/06/10 02:31:40;;;;;;;9.13;3.40;;;11.00;99.90;;;;;;4990871;28;20081;-82
2022/06/10 02:34:07;;;;;;;10.23;3.33;;;11.00;99.90;;;;;;4993425;28;20089;-82
2022/06/10 02:36:41;;;;;;;10.25;3.25;;;11.00;99.90;;;;;;4998885;28;20519;-82
2022/06/10 02:39:10;;;;;;;12.50;3.88;;;11.00;99.90;;;;;;4994669;28;20053;-82
2022/06/10 02:41:50;;;;;;;8.02;3.30;;;10.90;99.90;;;;;;4996857;28;20046;-82
2022/06/10 02:44:47;;;;;;;13.02;4.40;;;10.90;99.90;;;;;;4994387;28;20050;-82
2022/06/10 02:47:26;;;;;;;12.02;3.28;;;10.90;99.90;;;;;;4983075;28;20089;-82
2022/06/10 02:49:52;;;;;;;11.45;3.70;;;10.90;99.90;;;;;;4993099;28;20053;-82
2022/06/10 02:52:21;;;;;;;9.80;3.03;;;10.90;99.90;;;;;;4998792;28;20052;-82
2022/06/10 02:54:47;;;;;;;10.77;3.83;;;10.80;99.90;;;;;;4997419;28;20484;-82
2022/06/10 02:57:16;;;;;;;9.68;4.15;;;10.80;99.90;;;;;;4987008;28;20049;-82
2022/06/10 03:02:50;;;;;;;12.82;3.72;;;10.80;99.90;;;;;;4986196;28;20054;-82
2022/06/10 03:05:42;;;;;;;10.90;3.72;;;10.70;99.90;;;;;;4994478;28;20087;-82
2022/06/10 03:08:24;;;;;;;8.90;4.10;;;10.70;99.90;;;;;;4995692;28;20499;-82
2022/06/10 03:10:59;;;;;;;12.10;3.63;;;10.70;99.90;;;;;;4990217;28;20053;-82
2022/06/10 03:13:46;;;;;;;10.63;4.00;;;10.60;99.90;;;;;;4992891;28;20200;-81
2022/06/10 03:16:28;;;;;;;8.68;3.30;;;10.70;99.90;;;;;;4983356;28;20046;-82
2022/06/10 03:19:06;;;;;;;10.57;3.95;;;10.60;99.90;;;;;;4993722;28;20100;-82
2022/06/10 03:21:59;;;;;;;7.85;3.53;;;10.60;99.90;;;;;;4991898;28;20050;-83
2022/06/10 03:24:43;;;;;;;8.70;3.72;;;10.60;99.90;;;;;;4993734;28;20069;-82
2022/06/10 03:27:11;;;;;;;10.37;3.40;;;10.60;99.90;;;;;;4996371;28;20137;-83
2022/06/10 03:29:47;;;;;;;13.20;4.22;;;10.60;99.90;;;;;;4995253;28;20316;-83
2022/06/10 03:32:18;;;;;;;9.93;3.85;;;10.60;99.90;;;;;;4995196;28;20065;-83
2022/06/10 03:34:50;;;;;;;8.38;3.40;;;10.60;99.90;;;;;;4992869;28;20513;-82
2022/06/10 03:37:19;;;;;;;11.48;4.35;;;10.60;99.90;;;;;;4990129;28;20057;-83
2022/06/10 03:39:54;;;;;;;13.98;4.43;;;10.60;99.90;;;;;;4997092;28;20059;-83
2022/06/10 03:42:20;;;;;;;;;;;10.60;99.90;;;;;;4992208;28;20052;-83
2022/06/10 03:44:49;;;;;;;14.95;4.00;;;10.60;99.90;;;;;;4991613;28;20411;-83
2022/06/10 03:47:20;;;;;;;9.90;3.33;;;10.60;99.90;;;;;;4986283;28;20054;-83
2022/06/10 03:49:57;;;;;;;11.98;3.53;;;10.70;99.90;;;;;;5000283;28;20779;-83
2022/06/10 03:52:27;;;;;;;10.20;4.13;;;10.70;99.90;;;;;;4991593;28;20132;-83
2022/06/10 03:54:53;;;;;;;11.20;3.38;;;10.70;99.90;;;;;;4997834;28;20050;-83
2022/06/10 03:57:18;;;;;;;10.18;3.53;;;10.70;99.90;;;;;;5000933;28;20703;-83
2022/06/10 03:59:45;;;;;;;10.77;3.72;;;10.70;99.90;;;;;;4996532;28;20799;-82
2022/06/10 04:02:11;;;;;;;10.65;3.30;;;10.70;99.90;;;;;;4996148;28;20052;-83
2022/06/10 04:04:38;;;;;;;15.68;4.38;;;10.70;99.90;;;;;;4999952;28;20049;-83
2022/06/10 04:07:04;;;;;;;20.15;4.53;;;10.80;99.90;;;;;;5004358;28;20077;-81
2022/06/10 04:09:30;;;;;;;12.60;3.58;;;10.80;99.90;;;;;;5002083;28;20751;-81
2022/06/10 04:11:56;;;;;;;11.30;4.28;;;10.80;99.90;;;;;;4996027;28;20100;-81
2022/06/10 04:14:22;;;;;;;9.82;3.70;;;10.80;99.90;;;;;;4999518;28;21946;-82
2022/06/10 04:16:48;;;;;;;10.52;3.70;;;10.80;99.90;;;;;;4999480;28;20140;-83
2022/06/10 04:19:14;;;;;;;9.73;3.83;;;10.90;99.90;;;;;;4995758;28;20061;-83
2022/06/10 04:21:40;;;;;;;10.18;3.53;;;10.90;99.90;;;;;;4998975;28;20790;-83
2022/06/10 04:24:06;;;;;;;12.73;4.63;;;10.90;99.90;;;;;;5000148;28;20045;-81
2022/06/10 04:26:32;;;;;;;12.02;3.75;;;10.90;99.90;;;;;;4993707;28;20045;-83
2022/06/10 04:28:58;;;;;;;9.35;3.22;;;11.00;99.90;;;;;;4997562;28;20097;-82
2022/06/10 04:31:24;;;;;;;11.48;3.33;;;11.00;99.90;;;;;;4997457;28;20143;-83
2022/06/10 04:33:49;;;;;;;14.13;3.95;;;11.00;99.90;;;;;;5000890;28;20050;-83
2022/06/10 04:36:18;;;;;;;10.25;3.53;;;11.10;99.90;;;;;;4997726;28;20857;-83
2022/06/10 04:38:43;;;;;;;12.32;3.90;;;11.10;99.90;;;;;;4998975;28;20079;-83
2022/06/10 04:41:11;;;;;;;12.98;3.38;;;11.10;99.90;;;;;;4992837;28;20050;-82
2022/06/10 04:43:37;;;;;;;10.05;4.10;;;11.20;99.90;;;;;;4999143;28;20053;-83
2022/06/10 04:46:06;;;;;;;12.20;3.80;;;11.20;99.90;;;;;;4991245;28;20038;-82
2022/06/10 04:48:32;;;;;;;11.13;3.60;;;11.30;99.90;;;;;;4995974;28;20057;-82
2022/06/10 04:50:57;;;;;;;13.45;4.03;;;11.30;99.90;;;;;;4984020;28;20226;-82
2022/06/10 04:53:23;;;;;;;12.75;4.13;;;11.40;99.90;;;;;;4996792;28;20042;-83
2022/06/10 04:55:49;;;;;;;11.35;3.80;;;11.40;99.90;;;;;;4999076;28;20105;-83
2022/06/10 04:58:15;;;;;;;11.32;4.07;;;11.50;99.90;;;;;;5000200;28;20349;-83
2022/06/10 05:00:47;;;;;;;13.50;3.50;;;11.50;99.90;;;;;;4998440;28;20103;-83
2022/06/10 05:03:14;;;;;;;11.95;4.03;;;11.60;99.90;;;;;;4999003;28;21278;-81
2022/06/10 05:05:40;;;;;;;12.82;4.57;;;11.70;99.90;;;;;;4985058;28;20133;-81
2022/06/10 05:08:07;;;;;;;12.65;4.10;;;11.70;99.90;;;;;;4984041;28;20058;-83
2022/06/10 05:10:33;;;;;;;12.88;3.67;;;11.90;99.90;;;;;;4994936;28;20046;-82
2022/06/10 05:12:58;;;;;;;11.02;4.22;;;12.00;99.90;;;;;;4985738;28;20045;-81
2022/06/10 05:15:24;;;;;;;10.45;4.38;;;12.20;99.90;;;;;;5001883;28;20127;-83
2022/06/10 05:17:53;;;;;;;11.30;4.22;;;12.30;99.90;;;;;;4989509;28;20105;-90
2022/06/10 05:20:25;;;;;;;11.35;3.63;;;12.50;99.90;;;;;;4994635;28;20485;-90
2022/06/10 05:22:51;;;;;;;14.55;3.75;;;12.70;99.90;;;;;;5007432;28;20052;-91
2022/06/10 05:25:17;;;;;;;11.82;3.65;;;12.90;99.90;;;;;;5005942;28;20623;-91
2022/06/10 05:27:43;;;;;;;13.38;3.83;;;13.10;99.90;;;;;;5008940;28;20082;-92
2022/06/10 05:30:16;;;;;;;14.77;4.20;;;13.30;99.90;;;;;;4996475;28;20062;-90
2022/06/10 05:32:41;;;;;;;7.60;2.92;;;13.40;99.90;;;;;;4995135;28;20085;-93
2022/06/10 05:35:07;;;;;;;13.43;4.15;;;13.60;99.90;;;;;;5001953;28;20640;-92
2022/06/10 05:37:33;;;;;;;10.60;3.47;;;13.70;99.90;;;;;;4987166;28;20050;-89
2022/06/10 05:40:00;;;;;;;16.27;4.28;;;13.80;99.90;;;;;;5001677;28;20045;-89
2022/06/10 05:42:26;;;;;;;10.70;3.30;;;13.90;99.90;;;;;;5004241;28;20809;-90
2022/06/10 05:44:52;;;;;;;16.20;4.10;;;14.00;99.90;;;;;;5006425;28;20054;-91
2022/06/10 05:47:30;;;;;;;9.25;4.00;;;14.30;99.90;;;;;;5003495;28;20895;-88
2022/06/10 05:49:59;;;;;;;12.13;3.63;;;14.20;99.90;;;;;;5002549;28;20045;-88
2022/06/10 05:52:26;;;;;;;11.30;3.85;;;14.20;99.90;;;;;;4998940;28;20045;-90
2022/06/10 05:54:54;;;;;;;9.63;3.85;;;14.30;99.90;;;;;;5001608;28;20789;-88
2022/06/10 05:57:20;;;;;;;14.48;4.05;;;14.40;99.90;;;;;;4997222;28;20116;-88
2022/06/10 05:59:52;;;;;;;11.82;3.65;;;14.40;99.90;;;;;;4997794;28;20108;-90
2022/06/10 06:02:17;;;;;;;12.00;3.67;;;14.40;99.90;;;;;;5002300;28;20143;-88
2022/06/10 06:04:43;;;;;;;14.68;3.80;;;14.50;99.90;;;;;;4999430;28;20064;-88
2022/06/10 06:07:09;;;;;;;10.13;3.58;;;14.60;99.90;;;;;;4993785;28;20053;-91
2022/06/10 06:09:35;;;;;;;12.48;4.53;;;14.60;99.90;;;;;;4997192;28;20049;-89
2022/06/10 06:12:00;;;;;;;13.10;3.40;;;15.20;99.90;;;;;;4997546;28;20115;-88
2022/06/10 06:14:27;;;;;;;15.75;3.97;;;14.70;99.90;;;;;;4999157;28;20042;-87
2022/06/10 06:16:59;;;;;;;12.55;3.58;;;14.70;99.90;;;;;;4987762;28;20045;-87
2022/06/10 06:19:27;;;;;;;16.05;3.60;;;15.50;99.90;;;;;;4980994;28;20073;-82
2022/06/10 06:21:53;;;;;;;12.23;3.13;;;14.90;99.90;;;;;;4996246;28;20104;-87
2022/06/10 06:24:19;;;;;;;14.10;3.80;;;15.00;99.90;;;;;;4996152;28;20690;-89
2022/06/10 06:26:45;;;;;;;12.60;3.40;;;15.10;99.90;;;;;;4980592;28;20104;-85
2022/06/10 06:29:11;;;;;;;8.98;3.50;;;15.20;99.90;;;;;;4983619;28;20092;-85
2022/06/10 06:31:37;;;;;;;12.05;2.83;;;15.30;99.90;;;;;;4998535;28;20045;-83
2022/06/10 06:34:04;;;;;;;10.10;3.05;;;15.40;99.90;;;;;;4998494;28;20102;-79
2022/06/10 06:36:40;;;;;;;11.60;2.97;;;16.20;99.90;;;;;;4996759;28;20050;-82
2022/06/10 06:39:06;;;;;;;11.85;2.67;;;15.50;99.90;;;;;;5001297;28;20550;-81
2022/06/10 06:41:35;;;;;;;10.32;2.50;;;15.40;99.90;;;;;;4993076;28;20053;-84
2022/06/10 06:44:04;;;;;;;13.18;2.95;;;15.60;99.90;;;;;;4987370;28;20042;-83
2022/06/10 06:46:31;;;;;;;9.15;2.80;;;15.60;99.90;;;;;;4995619;28;20165;-82
2022/06/10 06:48:57;;;;;;;9.00;2.80;;;16.00;99.90;;;;;;4992559;28;20060;-82
2022/06/10 06:51:23;;;;;;;7.13;2.78;;;16.40;99.90;;;;;;4993731;28;20046;-82
2022/06/10 06:53:48;;;;;;;13.43;3.78;;;16.20;99.90;;;;;;4980511;28;20049;-82
2022/06/10 06:56:14;;;;;;;10.98;3.30;;;15.90;99.90;;;;;;4980014;28;20045;-82
2022/06/10 06:58:40;;;;;;;15.25;3.67;;;15.90;99.90;;;;;;4996951;28;20046;-82
2022/06/10 07:01:06;;;;;;;10.63;3.30;;;15.80;99.90;;;;;;4997388;28;20050;-82
2022/06/10 07:03:31;;;;;;;9.02;2.97;;;15.90;99.90;;;;;;4993376;28;20054;-82
2022/06/10 07:05:57;;;;;;;14.73;3.35;;;15.80;99.90;;;;;;4994982;28;20054;-82
2022/06/10 07:08:30;;;;;;;13.30;3.30;;;16.30;99.90;;;;;;4995955;28;20081;-82
2022/06/10 07:11:00;;;;;;;19.15;4.57;;;15.60;99.90;;;;;;4997348;28;20053;-82
2022/06/10 07:13:27;;;;;;;17.40;3.72;;;15.80;99.90;;;;;;4993516;28;20045;-82
2022/06/10 07:15:54;;;;;;;14.70;4.13;;;16.30;99.90;;;;;;4998063;28;20049;-83
2022/06/10 07:18:21;;;;;;;15.40;3.60;;;16.30;99.90;;;;;;4997858;28;20053;-82
2022/06/10 07:20:46;;;;;;;10.52;4.07;;;16.40;99.90;;;;;;4989337;28;20786;-82
2022/06/10 07:23:12;;;;;;;11.57;4.60;;;16.10;99.90;;;;;;4995735;28;20129;-82
2022/06/10 07:25:38;;;;;;;12.93;4.40;;;16.50;99.90;;;;;;4998697;28;20053;-82
2022/06/10 07:28:07;;;;;;;18.85;4.78;;;16.40;99.90;;;;;;4995135;28;20045;-81
2022/06/10 07:30:34;;;;;;;17.73;5.07;;;16.20;99.90;;;;;;4996784;28;20096;-83
2022/06/10 07:33:00;;;;;;;11.15;4.82;;;16.20;99.90;;;;;;4993828;28;20054;-82
2022/06/10 07:35:27;;;;;;;12.18;5.07;;;16.20;99.90;;;;;;4996945;28;20093;-83
2022/06/10 07:37:53;;;;;;;13.00;5.88;;;16.30;99.90;;;;;;4994879;28;20462;-82
2022/06/10 07:43:10;;;;;;;16.70;6.10;;;16.30;99.90;;;;;;4984476;28;20058;-82
2022/06/10 07:45:36;;;;;;;12.68;5.78;;;16.40;99.90;;;;;;4996586;28;20046;-82
2022/06/10 07:48:02;;;;;;;13.00;6.07;;;16.30;99.90;;;;;;4996539;28;20046;-82
2022/06/10 07:50:28;;;;;;;13.30;5.90;;;16.20;99.90;;;;;;4985709;28;20159;-82
2022/06/10 07:52:54;;;;;;;12.50;6.05;;;16.20;99.90;;;;;;4993614;28;20085;-82
2022/06/10 07:55:20;;;;;;;20.58;7.20;;;16.20;99.90;;;;;;4998908;28;20152;-82
2022/06/10 07:57:46;;;;;;;13.90;6.22;;;16.50;99.90;;;;;;4990138;28;20745;-83
2022/06/10 08:00:13;;;;;;;11.52;5.30;;;16.20;99.90;;;;;;4981945;28;20050;-82
2022/06/10 08:02:40;;;;;;;14.05;6.28;;;16.20;99.90;;;;;;4977251;28;20053;-81
2022/06/10 08:05:08;;;;;;;14.93;6.50;;;16.30;99.90;;;;;;4992842;28;20046;-82
2022/06/10 08:07:35;;;;;;;11.93;6.30;;;16.30;99.90;;;;;;4989978;28;20049;-82
2022/06/10 08:10:00;;;;;;;14.93;5.75;;;16.60;99.90;;;;;;4995979;28;20129;-82
2022/06/10 08:12:26;;;;;;;12.93;5.50;;;16.50;99.90;;;;;;4997505;28;20055;-82
2022/06/10 08:14:52;;;;;;;12.88;5.10;;;16.60;99.90;;;;;;4989902;28;20539;-82
2022/06/10 08:17:18;;;;;;;14.38;5.22;;;16.90;99.90;;;;;;4991153;28;20038;-82
2022/06/10 08:19:44;;;;;;;13.40;5.47;;;17.00;99.90;;;;;;4994949;28;20116;-83
2022/06/10 08:24:54;;;;;;;13.15;5.18;;;16.70;99.90;;;;;;4995976;28;20140;-83
2022/06/10 08:27:20;;;;;;;11.77;4.38;;;17.10;99.90;;;;;;4993644;28;20042;-82
2022/06/10 08:29:45;;;;;;;14.27;4.68;;;16.70;99.90;;;;;;4992802;28;20552;-82
2022/06/10 08:32:11;;;;;;;12.88;5.28;;;16.70;99.90;;;;;;4995193;28;20061;-82
2022/06/10 08:34:41;;;;;;;15.77;5.40;;;16.70;99.90;;;;;;4988193;28;20058;-82
2022/06/10 08:37:06;;;;;;;16.20;5.43;;;16.70;99.90;;;;;;4995143;28;20041;-84
2022/06/10 08:39:32;;;;;;;12.32;5.15;;;16.90;99.90;;;;;;4999600;28;20856;-85
2022/06/10 08:42:26;;;;;;;17.23;5.32;;;16.80;99.90;;;;;;4995823;28;20041;-84
2022/06/10 08:44:55;;;;;;;12.77;5.65;;;16.90;99.90;;;;;;4997708;28;20149;-84
2022/06/10 08:47:35;;;;;;;12.35;5.55;;;16.90;99.90;;;;;;4999126;28;20058;-85
2022/06/10 08:50:22;;;;;;;13.02;5.53;;;16.90;99.90;;;;;;4997579;28;20050;-84
2022/06/10 08:53:22;;;;;;;13.80;5.13;;;16.80;99.90;;;;;;4999860;28;20049;-84
2022/06/10 08:56:06;;;;;;;15.60;6.32;;;16.80;99.90;;;;;;4994349;28;20054;-84
2022/06/10 08:58:55;;;;;;;16.90;6.13;;;16.70;99.90;;;;;;4997964;28;20054;-84
2022/06/10 09:01:22;;;;;;;13.73;6.50;;;16.60;99.90;;;;;;4996504;28;20056;-84
2022/06/10 09:04:09;;;;;;;14.60;6.07;;;16.60;99.90;;;;;;4999808;28;20579;-84
2022/06/10 09:06:52;;;;;;;16.80;5.68;;;16.60;99.90;;;;;;4985033;28;20050;-84
2022/06/10 09:09:22;;;;;;;11.82;6.78;;;16.70;99.90;;;;;;4986536;28;20144;-84
2022/06/10 09:12:05;;;;;;;12.02;6.43;;;16.90;99.90;;;;;;4982337;28;20057;-84
2022/06/10 09:14:31;;;;;;;12.52;6.20;;;17.00;99.90;;;;;;4998195;28;20135;-84
2022/06/10 09:17:05;;;;;;;12.48;6.18;;;17.20;99.90;;;;;;4999312;28;20093;-85
2022/06/10 09:19:49;;;;;;;;;;;17.40;99.90;;;;;;4995680;28;20089;-85
2022/06/10 09:22:34;;;;;;;15.00;5.38;;;17.60;99.90;;;;;;4992825;28;19968;-84
2022/06/10 09:25:09;;;;;;;10.70;4.88;;;17.60;99.90;;;;;;4997285;28;20107;-84
2022/06/10 09:27:41;;;;;;;18.42;6.00;;;17.60;99.90;;;;;;4989965;28;20072;-84
2022/06/10 09:30:10;;;;;;;14.82;5.32;;;17.70;99.90;;;;;;4986050;28;20077;-84
2022/06/10 09:32:56;;;;;;;10.93;5.30;;;17.70;99.90;;;;;;4988816;28;20820;-84
2022/06/10 09:36:03;;;;;;;12.38;4.88;;;17.80;99.90;;;;;;4999180;28;20053;-85
2022/06/10 09:38:50;;;;;;;12.48;4.80;;;17.80;99.90;;;;;;4981968;28;20046;-85
2022/06/10 09:41:22;;;;;;;17.50;4.68;;;17.80;99.90;;;;;;4997199;28;20782;-85
2022/06/10 09:44:09;;;;;;;18.05;5.50;;;17.70;99.90;;;;;;4992707;28;20046;-85
2022/06/10 09:47:07;;;;;;;14.95;4.95;;;17.60;99.90;;;;;;5012984;28;20763;-83
2022/06/10 09:49:48;;;;;;;14.23;6.22;;;17.50;99.90;;;;;;4995219;28;21026;-86
2022/06/10 09:52:31;;;;;;;11.18;4.45;;;17.50;99.90;;;;;;4999368;28;20068;-85
2022/06/10 09:55:20;;;;;;;12.93;5.10;;;17.40;99.90;;;;;;4994624;28;20054;-85
2022/06/10 09:58:23;;;;;;;18.30;4.97;;;17.40;99.90;;;;;;4989296;28;20081;-84
2022/06/10 10:00:51;;;;;;;14.90;5.82;;;17.40;99.90;;;;;;4995792;28;20063;-84
2022/06/10 10:03:34;;;;;;;15.32;5.40;;;17.50;99.90;;;;;;4996569;28;20601;-83
2022/06/10 10:06:38;;;;;;;14.07;5.45;;;17.60;99.90;;;;;;4978807;28;20141;-83
2022/06/10 10:09:34;;;;;;;12.73;5.03;;;17.80;99.90;;;;;;4971297;28;20058;-84
2022/06/10 10:12:09;;;;;;;15.82;5.00;;;18.00;99.90;;;;;;4977224;28;20389;-85
2022/06/10 10:14:53;;;;;;;11.75;5.10;;;18.30;99.90;;;;;;4990940;28;20093;-83
2022/06/10 10:17:50;;;;;;;13.52;6.47;;;18.50;99.90;;;;;;4993546;28;20054;-82
2022/06/10 10:20:49;;;;;;;11.43;5.47;;;18.70;99.90;;;;;;4983079;28;20816;-83
2022/06/10 10:23:28;;;;;;;12.63;4.82;;;18.80;99.90;;;;;;5000044;28;20503;-83
2022/06/10 10:25:53;;;;;;;12.10;4.07;;;18.80;99.90;;;;;;4999634;28;20042;-82
2022/06/10 10:28:25;;;;;;;15.18;5.05;;;18.90;99.90;;;;;;4997219;28;20064;-82
2022/06/10 10:31:13;;;;;;;14.05;5.45;;;19.00;99.90;;;;;;4983755;28;20532;-84
2022/06/10 10:33:40;;;;;;;11.32;4.68;;;19.10;99.90;;;;;;4983269;28;20038;-84
2022/06/10 10:36:14;;;;;;;9.80;4.75;;;19.20;99.90;;;;;;4992726;28;20038;-82
2022/06/10 10:38:44;;;;;;;11.18;4.85;;;19.40;99.90;;;;;;4985677;28;20034;-83
2022/06/10 10:41:26;;;;;;;18.17;4.68;;;19.20;99.90;;;;;;4987015;28;20054;-82
2022/06/10 10:43:57;;;;;;;13.52;4.60;;;19.40;99.90;;;;;;4987709;28;20050;-83
2022/06/10 10:46:28;;;;;;;7.43;4.10;;;19.50;99.90;;;;;;4991304;28;20595;-83
2022/06/10 10:48:57;;;;;;;12.43;4.13;;;19.50;99.90;;;;;;4992127;28;20176;-82
2022/06/10 10:51:31;;;;;;;12.35;4.80;;;19.40;99.90;;;;;;4987815;28;20053;-82
2022/06/10 10:54:02;;;;;;;;;;;19.50;99.90;;;;;;4983273;28;20051;-83
2022/06/10 10:56:35;;;;;;;10.15;3.38;;;19.50;99.90;;;;;;4993875;28;20025;-83
2022/06/10 10:59:00;;;;;;;11.45;4.18;;;19.50;99.90;;;;;;4995986;28;20217;-82
2022/06/10 11:01:54;;;;;;;11.25;3.80;;;19.80;99.90;;;;;;4986129;28;20702;-83
2022/06/10 11:04:39;;;;;;;14.52;4.28;;;19.60;99.90;;;;;;4989622;28;20054;-83
2022/06/10 11:07:15;;;;;;;12.73;4.38;;;19.60;99.90;;;;;;4981367;28;20049;-84
2022/06/10 11:09:48;;;;;;;12.00;3.20;;;19.70;99.90;;;;;;4996062;28;20049;-84
2022/06/10 11:12:17;;;;;;;10.48;3.63;;;20.10;99.90;;;;;;4997438;28;20088;-83
2022/06/10 11:14:46;;;;;;;9.23;4.03;;;19.70;99.90;;;;;;4991091;28;20046;-85
2022/06/10 11:17:15;;;;;;;11.45;3.40;;;19.70;99.90;;;;;;4991979;28;20136;-86
2022/06/10 11:19:48;;;;;;;8.90;3.25;;;19.60;99.90;;;;;;4996997;28;20062;-86
2022/06/10 11:22:36;;;;;;;14.20;3.73;;;19.60;99.90;;;;;;4989652;28;20050;-86
2022/06/10 11:25:17;;;;;;;7.30;3.28;;;19.60;99.90;;;;;;4986418;28;20144;-86
2022/06/10 11:27:48;;;;;;;9.63;3.60;;;19.50;99.90;;;;;;4993229;28;20082;-86
2022/06/10 11:30:18;;;;;;;10.48;3.60;;;19.80;99.90;;;;;;4996513;28;20058;-85
2022/06/10 11:33:07;;;;;;;8.70;3.20;;;19.30;99.90;;;;;;4987459;28;20073;-85
2022/06/10 11:35:41;;;;;;;10.63;3.35;;;19.30;99.90;;;;;;4995842;28;20057;-85
2022/06/10 11:38:26;;;;;;;15.40;3.63;;;19.40;99.90;;;;;;4987418;28;20050;-85
2022/06/10 11:41:23;;;;;;;11.48;3.47;;;20.10;99.90;;;;;;4985535;28;20049;-85
2022/06/10 11:43:55;;;;;;;11.88;3.70;;;19.80;99.90;;;;;;4984213;28;20141;-85
2022/06/10 11:46:39;;;;;;;9.93;3.63;;;19.80;99.90;;;;;;4996285;28;20101;-85
2022/06/10 11:49:24;;;;;;;11.65;3.67;;;19.80;99.90;;;;;;4991764;28;20046;-85
2022/06/10 11:52:16;;;;;;;8.23;3.13;;;19.80;99.90;;;;;;4994746;28;20588;-85
2022/06/10 11:55:08;;;;;;;8.27;3.30;;;19.90;99.90;;;;;;4980385;28;20884;-85
2022/06/10 12:00:42;;;;;;;10.02;3.50;;;20.00;99.90;;;;;;4988624;28;20046;-84
2022/06/10 12:03:08;;;;;;;;;;;20.10;99.90;;;;;;4982668;28;20046;-85
2022/06/10 12:05:45;;;;;;;10.90;3.25;;;20.30;99.90;;;;;;4977197;28;20088;-84
2022/06/10 12:08:29;;;;;;;13.88;3.63;;;20.80;99.90;;;;;;4986869;28;20057;-84
2022/06/10 12:11:10;;;;;;;12.20;3.08;;;20.40;99.90;;;;;;4996828;28;20057;-84
2022/06/10 12:13:44;;;;;;;14.88;3.88;;;20.40;99.90;;;;;;4996944;28;20558;-84
2022/06/10 12:16:11;;;;;;;12.75;3.40;;;20.50;99.90;;;;;;4991803;28;20857;-84
2022/06/10 12:18:45;;;;;;;12.68;3.00;;;20.50;99.90;;;;;;4992384;28;20042;-84
2022/06/10 12:21:18;;;;;;;11.50;3.00;;;20.50;99.90;;;;;;4994979;28;20077;-81
2022/06/10 12:23:47;;;;;;;9.02;3.38;;;20.50;99.90;;;;;;4999963;28;20046;-84
2022/06/10 12:26:24;;;;;;;9.90;3.30;;;20.60;99.90;;;;;;4996430;28;20084;-82
2022/06/10 12:29:01;;;;;;;12.80;4.00;;;20.70;99.90;;;;;;4981140;28;20046;-82
2022/06/10 12:31:40;;;;;;;11.85;3.03;;;20.80;99.90;;;;;;5001176;28;20120;-82
2022/06/10 12:34:06;;;;;;;9.93;2.95;;;20.90;99.90;;;;;;5000084;28;20058;-82
2022/06/10 12:36:45;;;;;;;12.27;3.03;;;20.90;99.90;;;;;;4983900;28;20061;-82
2022/06/10 12:39:26;;;;;;;10.30;3.33;;;21.00;99.90;;;;;;4980641;28;20050;-82
2022/06/10 12:42:15;;;;;;;6.07;2.30;;;21.10;99.90;;;;;;4981661;28;20784;-82
2022/06/10 12:44:48;;;;;;;11.55;3.22;;;21.10;99.90;;;;;;4995836;28;20870;-82
2022/06/10 12:47:25;;;;;;;11.18;2.65;;;21.20;99.90;;;;;;5001708;28;20049;-82
2022/06/10 12:50:00;;;;;;;14.65;3.10;;;21.30;99.90;;;;;;4995162;28;20050;-82
2022/06/10 12:52:43;;;;;;;11.15;3.70;;;21.40;99.90;;;;;;4982483;28;20046;-82
2022/06/10 12:55:34;;;;;;;12.23;2.70;;;21.40;99.90;;;;;;4981166;28;20089;-82
2022/06/10 12:58:00;;;;;;;10.20;2.72;;;21.30;99.90;;;;;;4989770;28;20081;-83
2022/06/10 13:00:33;;;;;;;10.05;2.95;;;21.30;99.90;;;;;;4995741;28;20125;-83
2022/06/10 13:03:21;;;;;;;11.15;2.75;;;21.20;99.90;;;;;;4981509;28;20133;-83
2022/06/10 13:05:48;;;;;;;11.40;2.75;;;21.20;99.90;;;;;;4984608;28;20050;-83
2022/06/10 13:08:34;;;;;;;11.43;2.97;;;21.00;99.90;;;;;;4989041;28;20220;-83
2022/06/10 13:11:05;;;;;;;9.18;2.92;;;21.10;99.90;;;;;;4972596;28;20877;-83
2022/06/10 13:13:31;;;;;;;8.73;2.92;;;21.30;99.90;;;;;;4982350;28;20074;-82
2022/06/10 13:16:26;;;;;;;9.93;3.30;;;21.20;99.90;;;;;;4994186;28;20065;-83
2022/06/10 13:18:57;;;;;;;11.13;3.05;;;21.30;99.90;;;;;;4997063;28;20046;-83
2022/06/10 13:21:32;;;;;;;9.25;3.08;;;21.40;99.90;;;;;;4981109;28;20785;-83
2022/06/10 13:24:09;;;;;;;8.38;2.58;;;21.30;99.90;;;;;;4984611;28;20821;-83